createdAt,value
2023-03-28T00:01:49.040Z,102742.91
2023-03-28T00:04:20.648Z,102744.33
2023-03-28T00:06:53.467Z,102745.56
2023-03-28T00:09:23.340Z,102750.73
2023-03-28T00:11:53.594Z,102752.18
2023-03-28T00:14:23.391Z,102748.55
2023-03-28T00:16:53.400Z,102748.55
2023-03-28T00:19:23.171Z,102750.44
2023-03-28T00:21:54.761Z,102749.72
2023-03-28T00:24:24.242Z,102744.22
2023-03-28T00:26:58.423Z,102743.40
2023-03-28T00:29:30.269Z,102748.58
2023-03-28T00:32:00.897Z,102752.78
2023-03-28T00:34:31.232Z,102756.38
2023-03-28T00:37:02.404Z,102756.89
2023-03-28T00:39:32.719Z,102757.62
2023-03-28T00:42:03.407Z,102757.62
2023-03-28T00:44:53.803Z,102750.79
2023-03-28T00:47:30.747Z,102763.84
2023-03-28T00:50:06.336Z,102758.73
2023-03-28T00:52:45.120Z,102756.71
2023-03-28T00:55:27.061Z,102755.05
2023-03-28T00:57:57.651Z,102754.48
2023-03-28T01:00:30.758Z,102753.22
2023-03-28T01:03:02.654Z,102761.53
2023-03-28T01:05:34.959Z,102753.75
2023-03-28T01:08:15.317Z,102752.30
2023-03-28T01:10:45.862Z,102753.38
2023-03-28T01:13:19.087Z,102750.09
2023-03-28T01:15:51.523Z,102749.87
2023-03-28T01:18:23.426Z,102744.48
2023-03-28T01:20:58.689Z,102743.00
2023-03-28T01:23:33.760Z,102745.27
2023-03-28T01:26:30.045Z,102746.92
2023-03-28T01:29:34.092Z,102742.36
2023-03-28T01:32:35.265Z,102742.03
2023-03-28T01:35:30.598Z,102740.98
2023-03-28T01:38:25.937Z,102740.98
2023-03-28T01:41:15.242Z,102733.33
2023-03-28T01:44:01.337Z,102733.90
2023-03-28T01:46:40.197Z,102733.41
2023-03-28T01:49:31.872Z,102734.30
2023-03-28T01:52:10.534Z,102727.31
2023-03-28T01:54:52.345Z,102733.81
2023-03-28T01:57:33.931Z,102732.93
2023-03-28T02:00:15.717Z,102742.05
2023-03-28T02:03:06.612Z,102731.36
2023-03-28T02:05:40.193Z,102737.33
2023-03-28T02:08:14.306Z,102732.21
2023-03-28T02:10:50.535Z,102731.19
2023-03-28T02:13:51.694Z,102730.98
2023-03-28T02:16:42.208Z,102735.23
2023-03-28T02:19:33.275Z,102722.70
2023-03-28T02:22:13.620Z,102726.94
2023-03-28T02:24:54.318Z,102724.41
2023-03-28T02:27:26.321Z,102733.45
2023-03-28T02:30:01.275Z,102733.45
2023-03-28T02:32:35.805Z,102723.48
2023-03-28T02:35:09.127Z,102723.50
2023-03-28T02:38:02.106Z,102723.50
2023-03-28T02:40:41.746Z,102726.89
2023-03-28T02:43:15.445Z,102724.09
2023-03-28T02:46:09.327Z,102717.75
2023-03-28T02:49:00.073Z,102718.98
2023-03-28T02:51:41.518Z,102722.81
2023-03-28T02:54:30.999Z,102728.29
2023-03-28T02:57:27.186Z,102727.59
2023-03-28T03:00:04.880Z,102732.76
2023-03-28T03:02:34.793Z,102723.62
2023-03-28T03:05:04.923Z,102723.62
2023-03-28T03:07:34.785Z,102724.80
2023-03-28T03:10:08.036Z,102724.22
2023-03-28T03:12:38.523Z,102724.15
2023-03-28T03:15:08.992Z,102728.94
2023-03-28T03:17:47.084Z,102725.66
2023-03-28T03:20:17.498Z,102720.49
2023-03-28T03:22:47.327Z,102721.25
2023-03-28T03:25:17.358Z,102725.66
2023-03-28T03:27:48.876Z,102728.89
2023-03-28T03:30:20.380Z,102723.94
2023-03-28T03:32:51.946Z,102725.28
2023-03-28T03:35:22.041Z,102725.28
2023-03-28T03:37:51.957Z,102728.84
2023-03-28T03:40:21.961Z,102730.48
2023-03-28T03:42:52.404Z,102730.97
2023-03-28T03:45:22.657Z,102730.00
2023-03-28T03:47:52.645Z,102729.52
2023-03-28T03:50:22.686Z,102722.63
2023-03-28T03:52:52.589Z,102720.70
2023-03-28T03:55:23.801Z,102719.05
2023-03-28T03:57:53.926Z,102717.98
2023-03-28T04:00:23.629Z,102720.39
2023-03-28T04:02:54.022Z,102722.52
2023-03-28T04:05:25.951Z,102718.67
2023-03-28T04:08:08.083Z,102726.05
2023-03-28T04:10:39.925Z,102720.31
2023-03-28T04:13:09.819Z,102721.45
2023-03-28T04:15:39.525Z,102722.31
2023-03-28T04:18:19.132Z,102720.03
2023-03-28T04:20:54.532Z,102730.09
2023-03-28T04:23:44.002Z,102728.94
2023-03-28T04:26:33.069Z,102726.92
2023-03-28T04:29:05.778Z,102727.78
2023-03-28T04:31:39.134Z,102723.95
2023-03-28T04:34:31.536Z,102719.62
2023-03-28T04:37:13.242Z,102712.33
2023-03-28T04:39:46.868Z,102718.41
2023-03-28T04:42:30.091Z,102720.98
2023-03-28T04:45:08.705Z,102717.06
2023-03-28T04:47:40.225Z,102714.36
2023-03-28T04:50:13.052Z,102719.53
2023-03-28T04:52:43.068Z,102719.53
2023-03-28T04:55:12.920Z,102717.44
2023-03-28T04:57:42.768Z,102722.78
2023-03-28T05:00:15.369Z,102729.80
2023-03-28T05:02:57.260Z,102730.39
2023-03-28T05:05:28.264Z,102727.95
2023-03-28T05:07:59.693Z,102728.52
2023-03-28T05:10:29.196Z,102729.12
2023-03-28T05:13:00.689Z,102739.00
2023-03-28T05:15:31.420Z,102734.10
2023-03-28T05:18:03.328Z,102733.34
2023-03-28T05:20:35.982Z,102735.37
2023-03-28T05:23:07.224Z,102735.94
2023-03-28T05:25:38.800Z,102741.23
2023-03-28T05:28:10.945Z,102734.23
2023-03-28T05:30:42.442Z,102746.21
2023-03-28T05:33:12.750Z,102746.21
2023-03-28T05:35:43.080Z,102755.80
2023-03-28T05:38:14.361Z,102757.62
2023-03-28T05:40:44.475Z,102751.98
2023-03-28T05:43:14.386Z,102751.38
2023-03-28T05:45:44.497Z,102757.16
2023-03-28T05:48:19.168Z,102760.70
2023-03-28T05:50:51.076Z,102760.91
2023-03-28T05:53:21.022Z,102764.73
2023-03-28T05:55:51.751Z,102765.50
2023-03-28T05:58:21.718Z,102756.78
2023-03-28T06:00:52.374Z,102761.74
2023-03-28T06:03:22.752Z,102764.98
2023-03-28T06:05:52.959Z,102764.63
2023-03-28T06:08:24.655Z,102764.11
2023-03-28T06:10:54.871Z,102764.95
2023-03-28T06:13:26.188Z,102760.72
2023-03-28T06:15:56.218Z,102759.97
2023-03-28T06:18:31.146Z,102760.76
2023-03-28T06:21:01.434Z,102760.12
2023-03-28T06:23:31.914Z,102762.83
2023-03-28T06:26:03.225Z,102762.70
2023-03-28T06:28:34.855Z,102764.16
2023-03-28T06:31:20.776Z,102756.05
2023-03-28T06:33:50.494Z,102752.77
2023-03-28T06:36:22.076Z,102755.03
2023-03-28T06:38:53.519Z,102756.45
2023-03-28T06:41:25.201Z,102748.29
2023-03-28T06:43:55.192Z,102746.34
2023-03-28T06:46:43.111Z,102753.25
2023-03-28T06:49:13.781Z,102748.30
2023-03-28T06:52:01.665Z,102751.62
2023-03-28T06:54:31.964Z,102757.98
2023-03-28T06:57:01.911Z,102760.01
2023-03-28T06:59:31.760Z,102760.47
2023-03-28T07:02:03.429Z,102760.47
2023-03-28T07:04:35.110Z,102755.57
2023-03-28T07:07:05.299Z,102754.02
2023-03-28T07:09:35.576Z,102755.12
2023-03-28T07:12:08.828Z,102761.93
2023-03-28T07:14:40.443Z,102758.06
2023-03-28T07:17:10.869Z,102761.16
2023-03-28T07:19:40.992Z,102764.11
2023-03-28T07:22:12.347Z,102770.25
2023-03-28T07:24:42.555Z,102769.91
2023-03-28T07:27:16.496Z,102772.30
2023-03-28T07:29:47.100Z,102775.86
2023-03-28T07:32:17.285Z,102775.05
2023-03-28T07:34:48.250Z,102772.84
2023-03-28T07:37:22.741Z,102772.10
2023-03-28T07:39:56.457Z,102777.05
2023-03-28T07:42:28.270Z,102771.00
2023-03-28T07:44:58.120Z,102778.14
2023-03-28T07:47:30.626Z,102780.70
2023-03-28T07:50:00.516Z,102783.41
2023-03-28T07:52:31.901Z,102781.58
2023-03-28T07:55:01.787Z,102789.91
2023-03-28T07:57:32.831Z,102783.41
2023-03-28T08:00:10.763Z,102783.99
2023-03-28T08:02:44.961Z,102784.59
2023-03-28T08:05:14.459Z,102786.84
2023-03-28T08:07:46.203Z,102782.59
2023-03-28T08:10:16.248Z,102781.16
2023-03-28T08:12:46.741Z,102770.62
2023-03-28T08:15:16.857Z,102777.69
2023-03-28T08:17:47.184Z,102766.17
2023-03-28T08:20:16.994Z,102770.56
2023-03-28T08:23:04.881Z,102773.48
2023-03-28T08:25:42.461Z,102772.84
2023-03-28T08:28:13.089Z,102776.27
2023-03-28T08:30:42.942Z,102772.23
2023-03-28T08:33:12.959Z,102776.64
2023-03-28T08:35:43.007Z,102772.55
2023-03-28T08:38:14.640Z,102773.31
2023-03-28T08:40:47.568Z,102773.79
2023-03-28T08:43:44.609Z,102767.70
2023-03-28T08:46:17.732Z,102769.77
2023-03-28T08:48:49.740Z,102769.59
2023-03-28T08:51:22.707Z,102769.97
2023-03-28T08:54:22.671Z,102774.47
2023-03-28T08:56:55.815Z,102771.28
2023-03-28T08:59:34.320Z,102758.17
2023-03-28T09:02:12.141Z,102758.17
2023-03-28T09:04:42.288Z,102755.69
2023-03-28T09:07:16.860Z,102751.77
2023-03-28T09:10:04.432Z,102751.84
2023-03-28T09:12:57.819Z,102750.06
2023-03-28T09:15:36.322Z,102751.75
2023-03-28T09:18:17.008Z,102750.59
2023-03-28T09:20:55.682Z,102749.72
2023-03-28T09:24:09.075Z,102748.47
2023-03-28T09:26:48.835Z,102746.00
2023-03-28T09:29:24.984Z,102744.69
2023-03-28T09:32:01.006Z,102744.09
2023-03-28T09:34:43.109Z,102739.13
2023-03-28T09:37:19.006Z,102736.05
2023-03-28T09:39:55.369Z,102736.05
2023-03-28T09:42:29.665Z,102742.22
2023-03-28T09:48:20.626Z,102732.39
2023-03-28T09:50:52.411Z,102722.80
2023-03-28T09:53:27.186Z,102722.80
2023-03-28T09:56:04.341Z,102724.68
2023-03-28T09:58:47.618Z,102717.73
2023-03-28T10:01:36.019Z,102719.95
2023-03-28T10:04:14.990Z,102722.43
2023-03-28T10:07:13.453Z,102711.81
2023-03-28T10:09:50.713Z,102708.23
2023-03-28T10:12:28.863Z,102702.47
2023-03-28T10:14:58.990Z,102702.11
2023-03-28T10:17:45.988Z,102691.53
2023-03-28T10:20:22.634Z,102694.88
2023-03-28T10:22:56.958Z,102694.97
2023-03-28T10:25:36.070Z,102679.14
2023-03-28T10:28:10.939Z,102679.14
2023-03-28T10:30:42.276Z,102674.58
2023-03-28T10:33:21.920Z,102676.25
2023-03-28T10:36:12.714Z,102666.90
2023-03-28T10:38:50.296Z,102665.64
2023-03-28T10:41:29.648Z,102655.17
2023-03-28T10:44:19.111Z,102659.98
2023-03-28T10:46:54.479Z,102654.61
2023-03-28T10:49:28.491Z,102652.05
2023-03-28T10:52:00.261Z,102646.20
2023-03-28T10:54:46.189Z,102641.92
2023-03-28T10:57:40.845Z,102640.81
2023-03-28T11:00:23.121Z,102641.73
2023-03-28T11:03:17.994Z,102647.28
2023-03-28T11:06:07.931Z,102647.42
2023-03-28T11:08:45.851Z,102636.84
2023-03-28T11:11:44.108Z,102627.08
2023-03-28T11:14:34.733Z,102620.87
2023-03-28T11:17:22.831Z,102624.95
2023-03-28T11:20:24.746Z,102615.54
2023-03-28T11:23:29.157Z,102614.13
2023-03-28T11:26:08.029Z,102616.31
2023-03-28T11:28:59.197Z,102603.72
2023-03-28T11:31:32.294Z,102603.72
2023-03-28T11:34:11.410Z,102602.56
2023-03-28T11:36:47.857Z,102586.24
2023-03-28T11:39:27.645Z,102571.91
2023-03-28T11:41:59.862Z,102566.00
2023-03-28T11:44:40.081Z,102565.02
2023-03-28T11:47:19.605Z,102564.20
2023-03-28T11:50:08.934Z,102559.05
2023-03-28T11:52:43.486Z,102559.05
2023-03-28T11:55:21.693Z,102553.11
2023-03-28T11:58:13.606Z,102547.70
2023-03-28T12:00:49.133Z,102546.57
2023-03-28T12:03:36.020Z,102538.28
2023-03-28T12:06:15.104Z,102543.70
2023-03-28T12:09:02.998Z,102530.65
2023-03-28T12:11:49.249Z,102508.09
2023-03-28T12:14:33.984Z,102504.86
2023-03-28T12:17:09.749Z,102504.50
2023-03-28T12:19:41.567Z,102502.24
2023-03-28T12:22:29.444Z,102495.80
2023-03-28T12:25:10.538Z,102485.73
2023-03-28T12:27:50.963Z,102480.94
2023-03-28T12:30:32.378Z,102476.84
2023-03-28T12:33:08.858Z,102480.41
2023-03-28T12:35:55.481Z,102479.95
2023-03-28T12:38:37.188Z,102473.09
2023-03-28T12:41:19.921Z,102469.82
2023-03-28T12:43:56.009Z,102464.88
2023-03-28T12:46:32.748Z,102453.09
2023-03-28T12:49:08.183Z,102432.43
2023-03-28T12:51:40.799Z,102449.05
2023-03-28T12:54:20.488Z,102446.86
2023-03-28T12:57:02.290Z,102440.80
2023-03-28T13:02:59.337Z,102435.17
2023-03-28T13:05:50.219Z,102438.91
2023-03-28T13:08:56.072Z,102435.68
2023-03-28T13:11:40.589Z,102431.20
2023-03-28T13:14:27.390Z,102420.99
2023-03-28T13:16:59.525Z,102433.81
2023-03-28T13:19:52.869Z,102431.25
2023-03-28T13:22:31.561Z,102430.90
2023-03-28T13:25:28.112Z,102433.95
2023-03-28T13:28:01.014Z,102431.23
2023-03-28T13:30:34.080Z,102428.00
2023-03-28T13:33:31.107Z,102424.55
2023-03-28T13:36:04.161Z,102424.55
2023-03-28T13:38:50.216Z,102425.07
2023-03-28T13:41:46.155Z,102429.17
2023-03-28T13:44:25.265Z,102414.67
2023-03-28T13:46:55.576Z,102405.18
2023-03-28T13:49:43.357Z,102402.52
2023-03-28T13:52:22.089Z,102394.47
2023-03-28T13:54:53.698Z,102390.27
2023-03-28T13:57:28.258Z,102377.55
2023-03-28T14:00:01.339Z,102375.54
2023-03-28T14:02:44.717Z,102368.47
2023-03-28T14:05:29.029Z,102360.48
2023-03-28T14:08:16.843Z,102361.72
2023-03-28T14:10:48.549Z,102351.45
2023-03-28T14:13:31.453Z,102345.71
2023-03-28T14:16:01.324Z,102334.52
2023-03-28T14:18:34.217Z,102328.13
2023-03-28T14:21:06.350Z,102320.09
2023-03-28T14:23:42.175Z,102321.13
2023-03-28T14:26:16.935Z,102317.41
2023-03-28T14:28:47.577Z,102313.97
2023-03-28T14:31:32.289Z,102309.31
2023-03-28T14:34:05.157Z,102305.72
2023-03-28T14:36:36.716Z,102292.87
2023-03-28T14:39:14.031Z,102283.63
2023-03-28T14:41:44.649Z,102277.55
2023-03-28T14:44:14.657Z,102277.55
2023-03-28T14:46:46.650Z,102271.55
2023-03-28T14:49:19.311Z,102281.89
2023-03-28T14:51:52.228Z,102270.30
2023-03-28T14:57:05.363Z,102258.45
2023-03-28T14:59:41.294Z,102255.92
2023-03-28T15:02:14.122Z,102255.92
2023-03-28T15:04:46.403Z,102246.76
2023-03-28T15:07:31.520Z,102242.51
2023-03-28T15:10:22.529Z,102230.42
2023-03-28T15:13:04.098Z,102224.27
2023-03-28T15:15:37.716Z,102221.56
2023-03-28T15:18:13.137Z,102210.96
2023-03-28T15:20:46.865Z,102201.96
2023-03-28T15:23:29.206Z,102196.26
2023-03-28T15:26:02.261Z,102188.80
2023-03-28T15:28:32.944Z,102187.11
2023-03-28T15:31:04.684Z,102183.48
2023-03-28T15:33:35.829Z,102178.63
2023-03-28T15:36:09.654Z,102169.95
2023-03-28T15:38:41.249Z,102169.53
2023-03-28T15:41:27.219Z,102162.59
2023-03-28T15:44:02.300Z,102158.20
2023-03-28T15:46:33.921Z,102164.38
2023-03-28T15:49:05.973Z,102156.29
2023-03-28T15:51:41.278Z,102148.47
2023-03-28T15:54:24.070Z,102146.98
2023-03-28T15:56:48.399Z,102147.02
2023-03-28T15:59:30.398Z,102146.80
2023-03-28T16:02:22.724Z,102140.52
2023-03-28T16:05:16.533Z,102140.52
2023-03-28T16:07:50.518Z,102130.88
2023-03-28T16:10:22.459Z,102137.20
2023-03-28T16:12:59.943Z,102143.58
2023-03-28T16:15:40.462Z,102139.66
2023-03-28T16:18:12.099Z,102140.69
2023-03-28T16:20:45.313Z,102139.09
2023-03-28T16:23:15.760Z,102133.64
2023-03-28T16:25:45.809Z,102137.59
2023-03-28T16:28:19.406Z,102137.02
2023-03-28T16:30:49.292Z,102137.28
2023-03-28T16:33:19.696Z,102143.03
2023-03-28T16:35:49.621Z,102131.63
2023-03-28T16:38:19.217Z,102124.80
2023-03-28T16:40:48.826Z,102120.89
2023-03-28T16:43:18.737Z,102115.16
2023-03-28T16:45:52.076Z,102115.98
2023-03-28T16:48:21.996Z,102109.06
2023-03-28T16:50:59.697Z,102112.41
2023-03-28T16:53:29.486Z,102120.77
2023-03-28T16:55:59.781Z,102114.11
2023-03-28T16:58:29.923Z,102119.97
2023-03-28T17:01:05.910Z,102109.84
2023-03-28T17:03:36.646Z,102109.83
2023-03-28T17:06:09.932Z,102113.02
2023-03-28T17:08:40.264Z,102113.02
2023-03-28T17:11:12.664Z,102116.18
2023-03-28T17:13:43.415Z,102106.67
2023-03-28T17:16:13.221Z,102106.67
2023-03-28T17:18:43.130Z,102105.63
2023-03-28T17:21:14.978Z,102105.47
2023-03-28T17:23:47.125Z,102102.23
2023-03-28T17:26:17.780Z,102097.81
2023-03-28T17:28:47.625Z,102097.81
2023-03-28T17:31:20.483Z,102095.59
2023-03-28T17:33:50.212Z,102091.71
2023-03-28T17:36:28.007Z,102089.45
2023-03-28T17:39:00.027Z,102089.45
2023-03-28T17:41:30.852Z,102093.80
2023-03-28T17:44:00.825Z,102089.70
2023-03-28T17:46:30.665Z,102080.95
2023-03-28T17:49:00.650Z,102076.05
2023-03-28T17:51:30.817Z,102074.23
2023-03-28T17:54:00.925Z,102078.72
2023-03-28T17:56:31.067Z,102072.93
2023-03-28T17:59:01.245Z,102076.43
2023-03-28T18:01:31.109Z,102075.31
2023-03-28T18:04:01.277Z,102070.17
2023-03-28T18:06:49.196Z,102070.72
2023-03-28T18:09:19.009Z,102070.72
2023-03-28T18:11:49.476Z,102076.21
2023-03-28T18:14:19.078Z,102073.14
2023-03-28T18:16:49.107Z,102068.34
2023-03-28T18:19:19.017Z,102068.34
2023-03-28T18:21:49.313Z,102073.87
2023-03-28T18:24:20.397Z,102077.75
2023-03-28T18:26:50.294Z,102074.16
2023-03-28T18:29:20.181Z,102078.63
2023-03-28T18:31:50.286Z,102088.23
2023-03-28T18:34:20.547Z,102089.52
2023-03-28T18:36:51.381Z,102093.90
2023-03-28T18:39:23.020Z,102090.87
2023-03-28T18:41:52.948Z,102085.91
2023-03-28T18:44:22.746Z,102087.17
2023-03-28T18:46:54.467Z,102088.65
2023-03-28T18:49:25.096Z,102092.67
2023-03-28T18:51:55.294Z,102091.48
2023-03-28T18:54:24.825Z,102091.48
2023-03-28T18:56:54.384Z,102090.13
2023-03-28T18:59:24.156Z,102091.91
2023-03-28T19:01:54.906Z,102093.25
2023-03-28T19:04:26.382Z,102085.70
2023-03-28T19:06:56.557Z,102080.08
2023-03-28T19:09:26.753Z,102074.81
2023-03-28T19:11:56.554Z,102064.53
2023-03-28T19:14:26.764Z,102058.08
2023-03-28T19:16:56.916Z,102062.26
2023-03-28T19:19:27.140Z,102055.94
2023-03-28T19:21:57.401Z,102064.02
2023-03-28T19:24:27.269Z,102058.60
2023-03-28T19:26:58.915Z,102046.87
2023-03-28T19:29:29.010Z,102041.36
2023-03-28T19:31:58.899Z,102036.09
2023-03-28T19:34:31.697Z,102036.20
2023-03-28T19:37:01.773Z,102036.20
2023-03-28T19:39:31.931Z,102031.80
2023-03-28T19:42:01.749Z,102024.39
2023-03-28T19:44:33.033Z,102034.08
2023-03-28T19:47:06.835Z,102016.67
2023-03-28T19:49:38.038Z,102022.04
2023-03-28T19:52:09.975Z,102012.18
2023-03-28T19:54:39.771Z,102022.05
2023-03-28T19:57:09.600Z,102016.86
2023-03-28T19:59:39.454Z,102013.97
2023-03-28T20:02:11.950Z,102004.61
2023-03-28T20:04:41.828Z,102009.31
2023-03-28T20:07:12.613Z,102017.80
2023-03-28T20:09:44.363Z,102009.75
2023-03-28T20:12:14.194Z,102001.27
2023-03-28T20:14:44.282Z,102001.27
2023-03-28T20:17:14.286Z,102004.59
2023-03-28T20:19:44.227Z,102006.91
2023-03-28T20:22:14.494Z,102007.00
2023-03-28T20:24:44.776Z,102004.14
2023-03-28T20:27:16.242Z,102010.66
2023-03-28T20:29:46.840Z,101998.68
2023-03-28T20:32:17.492Z,102005.77
2023-03-28T20:34:47.640Z,102012.66
2023-03-28T20:37:18.106Z,102015.59
2023-03-28T20:39:48.886Z,102005.73
2023-03-28T20:42:19.485Z,101999.25
2023-03-28T20:44:49.884Z,101991.41
2023-03-28T20:47:21.438Z,101987.35
2023-03-28T20:49:52.952Z,101981.78
2023-03-28T20:52:22.672Z,101972.95
2023-03-28T20:54:52.542Z,101977.91
2023-03-28T20:57:24.360Z,101973.52
2023-03-28T20:59:55.243Z,101971.88
2023-03-28T21:02:26.295Z,101974.55
2023-03-28T21:04:56.184Z,101978.38
2023-03-28T21:07:26.659Z,101956.97
2023-03-28T21:09:57.918Z,101959.59
2023-03-28T21:12:28.580Z,101950.83
2023-03-28T21:14:58.211Z,101946.31
2023-03-28T21:17:29.133Z,101947.40
2023-03-28T21:19:59.302Z,101949.34
2023-03-28T21:22:29.375Z,101947.00
2023-03-28T21:24:59.482Z,101935.78
2023-03-28T21:27:29.421Z,101947.50
2023-03-28T21:30:00.922Z,101942.05
2023-03-28T21:32:33.108Z,101928.28
2023-03-28T21:35:04.000Z,101926.45
2023-03-28T21:37:33.959Z,101913.62
2023-03-28T21:40:06.755Z,101913.22
2023-03-28T21:42:36.556Z,101913.22
2023-03-28T21:45:08.206Z,101916.17
2023-03-28T21:47:38.793Z,101920.44
2023-03-28T21:50:11.895Z,101908.15
2023-03-28T21:52:41.916Z,101916.94
2023-03-28T21:55:11.550Z,101916.94
2023-03-28T21:57:41.466Z,101918.98
2023-03-28T22:00:17.600Z,101910.44
2023-03-28T22:02:47.286Z,101912.30
2023-03-28T22:05:28.708Z,101906.30
2023-03-28T22:07:50.301Z,101902.15
2023-03-28T22:10:21.297Z,101888.60
2023-03-28T22:12:52.770Z,101878.60
2023-03-28T22:15:22.665Z,101886.52
2023-03-28T22:17:54.874Z,101886.61
2023-03-28T22:20:27.014Z,101889.14
2023-03-28T22:22:58.550Z,101879.08
2023-03-28T22:25:30.043Z,101880.86
2023-03-28T22:27:59.818Z,101884.83
2023-03-28T22:30:29.722Z,101877.14
2023-03-28T22:32:59.611Z,101886.89
2023-03-28T22:35:29.769Z,101886.89
2023-03-28T22:38:00.386Z,101885.83
2023-03-28T22:40:30.677Z,101883.23
2023-03-28T22:43:01.369Z,101872.66
2023-03-28T22:45:31.718Z,101869.11
2023-03-28T22:48:03.316Z,101864.92
2023-03-28T22:50:33.786Z,101867.89
2023-03-28T22:53:04.471Z,101859.20
2023-03-28T22:55:34.312Z,101849.86
2023-03-28T22:58:06.382Z,101840.45
2023-03-28T23:00:36.404Z,101841.55
2023-03-28T23:03:08.095Z,101831.08
2023-03-28T23:05:38.972Z,101822.33
2023-03-28T23:08:11.693Z,101812.81
2023-03-28T23:10:41.867Z,101807.69
2023-03-28T23:13:11.742Z,101807.69
2023-03-28T23:15:41.604Z,101804.62
2023-03-28T23:18:12.055Z,101801.39
2023-03-28T23:20:42.726Z,101806.72
2023-03-28T23:23:14.219Z,101808.08
2023-03-28T23:25:45.608Z,101808.08
2023-03-28T23:28:17.244Z,101800.77
2023-03-28T23:30:47.310Z,101804.68
2023-03-28T23:33:18.321Z,101805.89
2023-03-28T23:35:48.570Z,101796.91
2023-03-28T23:38:18.167Z,101793.53
2023-03-28T23:40:48.471Z,101783.73
2023-03-28T23:43:18.569Z,101777.22
2023-03-28T23:45:48.392Z,101774.45
2023-03-28T23:48:18.050Z,101776.80
2023-03-28T23:50:47.851Z,101771.83
2023-03-28T23:53:17.657Z,101766.29
2023-03-28T23:55:47.531Z,101760.69
2023-03-28T23:58:17.173Z,101762.61
